Terminal Aerodrome Forecast
Issued by NWS

Home | Current Version | Previous Version | Text Only | Print | Product List | Glossary On
Versions: 1 2 3 4 5 6 7 8 9 10 11 12
076
FTUS43 KSGF 251720
TAFBBG
TAF
KBBG 251720Z 2518/2618 17014G25KT P6SM FEW250
     FM260100 16012KT P6SM BKN100
     FM260800 17008KT P6SM -SHRA VCTS SCT025CB OVC050 PROB30
      2608/2614 5SM -TSRA BR OVC025CB=

USA.gov is the U.S. government's official web portal to all federal, state and local government web resources and services.